Time;durP1;ratioP1;P1;durP2;ratioP2;P2;SDS_P1;SDS_P2;PMS_P1;PMS_P2;Temp;Humidity;BMP_temperature;BMP_pressure;BME280_temperature;BME280_humidity;BME280_pressure;Samples;Min_cycle;Max_cycle;Signal;HPM_P1;HPM_P2
2024/02/11 00:01:01;;;;;;;;;;;;;;;9.85;91.94;94401.80;109487;1283;22390;-84
2024/02/11 00:03:48;;;;;;;;;;;;;;;10.01;91.47;94401.01;109400;1274;124208;-84
2024/02/11 00:06:14;;;;;;;;;;;;;;;10.09;91.09;94401.50;108214;1283;22515;-84
2024/02/11 00:08:41;;;;;;;;;;;;;;;10.18;90.55;94400.05;107867;1283;124809;-84
2024/02/11 00:11:12;;;;;;;;;;;;;;;10.27;90.64;94398.95;107908;1281;22533;-84
2024/02/11 00:13:40;;;;;;;;;;;;;;;10.32;90.13;94401.65;107972;1285;125006;-83
2024/02/11 00:16:09;;;;;;;;;;;;;;;10.39;90.11;94402.88;107947;1286;25191;-83
2024/02/11 00:18:37;;;;;;;;;;;;;;;10.44;89.74;94397.33;107974;1283;22543;-83
2024/02/11 00:21:07;;;;;;;;;;;;;;;10.50;89.20;94406.27;107770;1286;124398;-83
2024/02/11 00:23:37;;;;;;;;;;;;;;;10.54;88.99;94400.23;107924;1289;22521;-83
2024/02/11 00:26:06;;;;;;;;;;;;;;;10.58;89.12;94403.70;107903;1283;124567;-83
2024/02/11 00:28:32;;;;;;;;;;;;;;;10.60;88.85;94401.34;107813;1289;23379;-83
2024/02/11 00:31:03;;;;;;;;;;;;;;;10.59;88.48;94403.46;107998;1289;22520;-83
2024/02/11 00:33:30;;;;;;;;;;;;;;;10.62;87.92;94404.85;107817;1289;124265;-83
2024/02/11 00:35:59;;;;;;;;;;;;;;;10.66;87.77;94401.87;107992;1284;22995;-83
2024/02/11 00:38:26;;;;;;;;;;;;;;;10.70;87.78;94404.70;108010;1270;125066;-83
2024/02/11 00:40:53;;;;;;;;;;;;;;;10.69;87.87;94404.84;108063;1284;23223;-83
2024/02/11 00:43:21;;;;;;;;;;;;;;;10.71;87.54;94407.10;107950;1283;24238;-83
2024/02/11 00:45:48;;;;;;;;;;;;;;;10.73;87.39;94399.77;107842;1282;124433;-83
2024/02/11 00:48:14;;;;;;;;;;;;;;;10.74;87.25;94401.69;108018;1289;22556;-83
2024/02/11 00:50:41;;;;;;;;;;;;;;;10.74;87.24;94399.08;107841;1289;124476;-83
2024/02/11 00:53:07;;;;;;;;;;;;;;;10.71;87.25;94400.09;107853;1289;23605;-83
2024/02/11 00:55:35;;;;;;;;;;;;;;;10.71;87.10;94404.86;107789;1288;124611;-84
2024/02/11 00:58:03;;;;;;;;;;;;;;;10.71;86.83;94399.98;107904;1289;22563;-83
2024/02/11 01:00:29;;;;;;;;;;;;;;;10.73;86.97;94401.38;107916;1289;22548;-83
2024/02/11 01:02:56;;;;;;;;;;;;;;;10.73;87.09;94400.41;107834;1289;124549;-83
2024/02/11 01:05:22;;;;;;;;;;;;;;;10.73;87.03;94400.06;107792;1283;22515;-83
2024/02/11 01:07:52;;;;;;;;;;;;;;;10.74;87.01;94399.53;107706;1286;124880;-84
2024/02/11 01:10:18;;;;;;;;;;;;;;;10.73;87.20;94396.65;107876;1283;23143;-83
2024/02/11 01:12:45;;;;;;;;;;;;;;;10.73;87.08;94398.78;107901;1289;22527;-83
2024/02/11 01:15:12;;;;;;;;;;;;;;;10.72;86.92;94394.80;107939;1289;125673;-83
2024/02/11 01:17:40;;;;;;;;;;;;;;;10.71;87.38;94394.95;108004;1289;22775;-83
2024/02/11 01:20:10;;;;;;;;;;;;;;;10.67;87.45;94398.77;107942;1289;125190;-83
2024/02/11 01:22:39;;;;;;;;;;;;;;;10.65;87.32;94390.48;108072;1273;22651;-83
2024/02/11 01:25:06;;;;;;;;;;;;;;;10.64;87.66;94395.96;108047;1289;24211;-83
2024/02/11 01:27:33;;;;;;;;;;;;;;;10.61;87.85;94393.05;107853;1289;125514;-83
2024/02/11 01:30:00;;;;;;;;;;;;;;;10.57;88.09;94391.63;108042;1289;23144;-84
2024/02/11 01:32:26;;;;;;;;;;;;;;;10.55;88.33;94388.19;107907;1289;124935;-83
2024/02/11 01:34:53;;;;;;;;;;;;;;;10.53;88.60;94389.98;107954;1285;22520;-83
2024/02/11 01:37:19;;;;;;;;;;;;;;;10.50;89.35;94385.41;107913;1289;22504;-83
2024/02/11 01:39:47;;;;;;;;;;;;;;;10.44;89.82;94381.50;107929;1283;124454;-83
2024/02/11 01:42:13;;;;;;;;;;;;;;;10.39;89.50;94378.63;107985;1287;22559;-83
2024/02/11 01:44:40;;;;;;;;;;;;;;;10.38;90.15;94377.25;107755;1286;124446;-83
2024/02/11 01:47:06;;;;;;;;;;;;;;;10.28;90.97;94374.10;107935;1290;26476;-83
2024/02/11 01:49:34;;;;;;;;;;;;;;;10.20;90.73;94370.54;107718;1290;124620;-84
2024/02/11 01:52:01;;;;;;;;;;;;;;;10.14;91.36;94367.88;107936;1284;24210;-83
2024/02/11 01:54:27;;;;;;;;;;;;;;;10.02;91.79;94365.23;108025;1289;23214;-83
2024/02/11 01:56:54;;;;;;;;;;;;;;;9.91;92.07;94357.41;107842;1290;124672;-83
2024/02/11 01:59:20;;;;;;;;;;;;;;;9.86;92.93;94352.94;107947;1286;22524;-84
2024/02/11 02:01:46;;;;;;;;;;;;;;;9.81;93.26;94353.70;107862;1288;124458;-83
2024/02/11 02:04:14;;;;;;;;;;;;;;;9.77;93.33;94352.05;108013;1286;22528;-83
2024/02/11 02:06:40;;;;;;;;;;;;;;;9.78;93.17;94346.50;107896;1289;22541;-83
2024/02/11 02:09:10;;;;;;;;;;;;;;;9.79;93.88;94346.88;107810;1290;124242;-83
2024/02/11 02:11:39;;;;;;;;;;;;;;;9.78;93.53;94347.79;107889;1290;22517;-83
2024/02/11 02:14:06;;;;;;;;;;;;;;;9.76;93.32;94336.04;107828;1290;124444;-83
2024/02/11 02:16:32;;;;;;;;;;;;;;;9.75;93.95;94341.95;107934;1289;22520;-83
2024/02/11 02:19:14;;;;;;;;;;;;;;;9.73;93.78;94340.30;107937;1290;22566;-83
2024/02/11 02:21:45;;;;;;;;;;;;;;;9.73;93.61;94331.05;107856;1290;125339;-83
2024/02/11 02:24:13;;;;;;;;;;;;;;;9.73;94.17;94333.04;107884;1290;22541;-82
2024/02/11 02:26:40;;;;;;;;;;;;;;;9.69;94.32;94327.70;107824;1290;124380;-83
2024/02/11 02:29:06;;;;;;;;;;;;;;;9.63;94.84;94320.63;107894;1290;22563;-83
2024/02/11 02:31:34;;;;;;;;;;;;;;;9.60;94.56;94326.17;107844;1287;124407;-83
2024/02/11 02:34:01;;;;;;;;;;;;;;;9.62;94.80;94324.47;107964;1282;22541;-83
2024/02/11 02:36:27;;;;;;;;;;;;;;;9.61;94.49;94318.18;107839;1285;22534;-83
2024/02/11 02:38:54;;;;;;;;;;;;;;;9.65;95.16;94321.10;107743;1283;124287;-83
2024/02/11 02:41:22;;;;;;;;;;;;;;;9.61;95.30;94318.33;107946;1283;24299;-83
2024/02/11 02:43:48;;;;;;;;;;;;;;;9.53;94.95;94316.38;107871;1289;124422;-83
2024/02/11 02:46:16;;;;;;;;;;;;;;;9.50;95.74;94307.03;108039;1284;22532;-84
2024/02/11 02:48:44;;;;;;;;;;;;;;;9.53;95.36;94304.80;108039;1284;22614;-83
2024/02/11 02:51:11;;;;;;;;;;;;;;;9.52;95.76;94306.48;107837;1289;124697;-83
2024/02/11 02:53:38;;;;;;;;;;;;;;;9.46;95.97;94302.60;108072;1288;22538;-83
2024/02/11 02:56:04;;;;;;;;;;;;;;;9.42;96.29;94304.61;107844;1289;125413;-84
2024/02/11 02:58:30;;;;;;;;;;;;;;;9.33;95.92;94303.37;107933;1289;24317;-83
2024/02/11 03:01:00;;;;;;;;;;;;;;;9.31;96.93;94299.02;107994;1289;22561;-83
2024/02/11 03:03:26;;;;;;;;;;;;;;;9.25;97.15;94306.77;107947;1284;124818;-83
2024/02/11 03:05:53;;;;;;;;;;;;;;;9.19;97.17;94299.20;107898;1283;22515;-83
2024/02/11 03:08:19;;;;;;;;;;;;;;;9.18;97.70;94304.48;107961;1288;124295;-83
2024/02/11 03:10:45;;;;;;;;;;;;;;;9.25;97.48;94295.61;108094;1289;22562;-83
2024/02/11 03:13:12;;;;;;;;;;;;;;;9.30;97.29;94294.80;108031;1289;25417;-83
2024/02/11 03:15:38;;;;;;;;;;;;;;;9.36;97.45;94300.29;107922;1284;124472;-83
2024/02/11 03:18:05;;;;;;;;;;;;;;;9.40;97.17;94292.67;107910;1289;22615;-83
2024/02/11 03:20:33;;;;;;;;;;;;;;;9.44;97.10;94293.62;107777;1286;124298;-83
2024/02/11 03:23:00;;;;;;;;;;;;;;;9.47;96.92;94287.31;107870;1289;22565;-83
2024/02/11 03:25:26;;;;;;;;;;;;;;;9.46;96.76;94291.04;107947;1284;124435;-85
2024/02/11 03:27:54;;;;;;;;;;;;;;;9.53;96.37;94289.52;108119;1289;22540;-84
2024/02/11 03:30:23;;;;;;;;;;;;;;;9.59;96.40;94285.09;108127;1289;23189;-85
2024/02/11 03:32:50;;;;;;;;;;;;;;;9.65;96.06;94281.77;108055;1288;124771;-85
2024/02/11 03:35:16;;;;;;;;;;;;;;;9.73;95.84;94276.91;108116;1286;22698;-84
2024/02/11 03:37:43;;;;;;;;;;;;;;;9.85;95.14;94272.82;107973;1286;126556;-85
2024/02/11 03:40:12;;;;;;;;;;;;;;;9.94;94.71;94267.14;108278;1277;22610;-85
2024/02/11 03:42:38;;;;;;;;;;;;;;;10.03;94.61;94266.70;108268;1288;22801;-84
2024/02/11 03:45:18;;;;;;;;;;;;;;;10.02;94.46;94257.96;108028;1288;124402;-84
2024/02/11 03:47:47;;;;;;;;;;;;;;;10.00;94.09;94261.18;108221;1283;22949;-85
2024/02/11 03:50:15;;;;;;;;;;;;;;;10.05;93.52;94257.15;108174;1288;124795;-85
2024/02/11 03:52:41;;;;;;;;;;;;;;;10.10;94.20;94257.91;108164;1284;22999;-84
2024/02/11 03:55:11;;;;;;;;;;;;;;;10.05;93.62;94251.43;108068;1288;22527;-85
2024/02/11 03:57:40;;;;;;;;;;;;;;;10.06;93.45;94249.14;108000;1281;124668;-85
2024/02/11 04:00:12;;;;;;;;;;;;;;;10.12;93.25;94251.16;108114;1288;24902;-85
2024/02/11 04:02:39;;;;;;;;;;;;;;;10.17;93.21;94251.88;108035;1288;124512;-85
2024/02/11 04:05:06;;;;;;;;;;;;;;;10.19;92.97;94242.77;108104;1283;22699;-85
2024/02/11 04:07:32;;;;;;;;;;;;;;;10.13;93.60;94252.64;108108;1286;124638;-84
2024/02/11 04:10:17;;;;;;;;;;;;;;;10.08;93.43;94247.86;108213;1289;24247;-85
2024/02/11 04:12:44;;;;;;;;;;;;;;;10.08;93.27;94247.95;108231;1288;23824;-85
2024/02/11 04:15:10;;;;;;;;;;;;;;;10.13;92.74;94248.89;108135;1281;123951;-85
2024/02/11 04:17:37;;;;;;;;;;;;;;;10.17;92.96;94238.22;108128;1288;22535;-85
2024/02/11 04:20:08;;;;;;;;;;;;;;;10.14;92.43;94235.31;107949;1287;125268;-85
2024/02/11 04:22:36;;;;;;;;;;;;;;;10.19;92.27;94233.91;108119;1287;22569;-85
2024/02/11 04:25:07;;;;;;;;;;;;;;;10.19;92.74;94235.55;108164;1288;25659;-85
2024/02/11 04:27:40;;;;;;;;;;;;;;;10.15;92.65;94230.81;108106;1281;124604;-85
2024/02/11 04:30:14;;;;;;;;;;;;;;;10.14;92.11;94233.35;108115;1288;22530;-84
2024/02/11 04:32:44;;;;;;;;;;;;;;;10.20;91.64;94233.15;108092;1289;124758;-85
2024/02/11 04:35:14;;;;;;;;;;;;;;;10.28;91.54;94230.20;108087;1273;25760;-85
2024/02/11 04:37:47;;;;;;;;;;;;;;;10.30;91.55;94233.14;107996;1283;124772;-85
2024/02/11 04:40:17;;;;;;;;;;;;;;;10.30;91.24;94232.78;108226;1283;22584;-85
2024/02/11 04:42:53;;;;;;;;;;;;;;;10.34;90.44;94225.17;108090;1288;22597;-85
2024/02/11 04:45:22;;;;;;;;;;;;;;;10.37;91.06;94222.87;108051;1286;124579;-84
2024/02/11 04:47:54;;;;;;;;;;;;;;;10.33;91.68;94220.05;108166;1286;22551;-85
2024/02/11 04:50:21;;;;;;;;;;;;;;;10.24;91.97;94218.80;108073;1289;125575;-85
2024/02/11 04:52:54;;;;;;;;;;;;;;;10.15;91.48;94218.73;108129;1289;22647;-85
2024/02/11 04:55:24;;;;;;;;;;;;;;;10.18;91.05;94214.21;108174;1289;26426;-85
2024/02/11 04:57:51;;;;;;;;;;;;;;;10.20;91.19;94212.94;108113;1289;124236;-85
2024/02/11 05:00:23;;;;;;;;;;;;;;;10.17;90.99;94209.48;108122;1289;22538;-83
2024/02/11 05:02:50;;;;;;;;;;;;;;;10.18;91.21;94203.73;108399;1289;124405;-83
2024/02/11 05:05:28;;;;;;;;;;;;;;;10.17;91.47;94204.02;107997;1287;22550;-83
2024/02/11 05:07:56;;;;;;;;;;;;;;;10.13;90.72;94205.10;107912;1289;124660;-83
2024/02/11 05:10:27;;;;;;;;;;;;;;;10.13;90.91;94207.33;108006;1289;22521;-83
2024/02/11 05:12:56;;;;;;;;;;;;;;;10.14;91.11;94194.63;108003;1289;22517;-83
2024/02/11 05:15:24;;;;;;;;;;;;;;;10.10;91.57;94196.47;107911;1287;124620;-83
2024/02/11 05:17:54;;;;;;;;;;;;;;;10.06;91.76;94198.66;107974;1283;25217;-83
2024/02/11 05:20:21;;;;;;;;;;;;;;;10.05;91.04;94194.44;108038;1290;124450;-85
2024/02/11 05:22:49;;;;;;;;;;;;;;;10.09;91.20;94196.30;108169;1286;23436;-85
2024/02/11 05:25:26;;;;;;;;;;;;;;;10.06;91.41;94193.11;108257;1289;22530;-85
2024/02/11 05:27:56;;;;;;;;;;;;;;;9.99;91.55;94187.27;108156;1289;23360;-84
2024/02/11 05:30:24;;;;;;;;;;;;;;;9.94;91.53;94188.54;108248;1283;22550;-85
2024/02/11 05:32:54;;;;;;;;;;;;;;;9.91;91.53;94189.30;108217;1287;124300;-85
2024/02/11 05:35:23;;;;;;;;;;;;;;;9.91;92.01;94188.84;108208;1289;22839;-85
2024/02/11 05:37:57;;;;;;;;;;;;;;;9.90;92.07;94188.24;108123;1283;124602;-85
2024/02/11 05:40:27;;;;;;;;;;;;;;;9.86;92.54;94192.90;108083;1289;23109;-85
2024/02/11 05:42:54;;;;;;;;;;;;;;;9.81;92.68;94201.42;108144;1289;22677;-85
2024/02/11 05:45:22;;;;;;;;;;;;;;;9.80;92.61;94200.71;108014;1289;123260;-85
2024/02/11 05:47:51;;;;;;;;;;;;;;;9.80;92.70;94202.64;108074;1289;22752;-85
2024/02/11 05:50:18;;;;;;;;;;;;;;;9.83;92.65;94201.24;107993;1287;123321;-84
2024/02/11 05:52:45;;;;;;;;;;;;;;;9.85;92.25;94200.60;108087;1283;22561;-84
2024/02/11 05:55:16;;;;;;;;;;;;;;;9.85;92.75;94197.55;108174;1286;22529;-85
2024/02/11 05:57:43;;;;;;;;;;;;;;;9.82;92.81;94197.91;108030;1286;124561;-85
2024/02/11 06:00:12;;;;;;;;;;;;;;;9.76;93.51;94199.73;108124;1289;22561;-85
2024/02/11 06:02:39;;;;;;;;;;;;;;;9.70;93.90;94197.98;108080;1289;124412;-85
2024/02/11 06:05:06;;;;;;;;;;;;;;;9.65;93.62;94200.67;108102;1289;22518;-85
2024/02/11 06:07:37;;;;;;;;;;;;;;;9.66;93.45;94208.16;108018;1283;124940;-84
2024/02/11 06:10:04;;;;;;;;;;;;;;;9.64;93.63;94203.01;108148;1287;22641;-85
2024/02/11 06:12:30;;;;;;;;;;;;;;;9.65;93.76;94205.14;108140;1287;22512;-85
2024/02/11 06:14:57;;;;;;;;;;;;;;;9.65;93.90;94213.17;107980;1284;124384;-85
2024/02/11 06:17:25;;;;;;;;;;;;;;;9.63;93.47;94200.55;108170;1283;22514;-85
2024/02/11 06:19:54;;;;;;;;;;;;;;;9.63;93.60;94200.60;108012;1284;124432;-86
2024/02/11 06:22:21;;;;;;;;;;;;;;;9.62;94.26;94200.77;108061;1285;22595;-86
2024/02/11 06:24:50;;;;;;;;;;;;;;;9.55;93.83;94201.88;108081;1289;25312;-86
2024/02/11 06:27:18;;;;;;;;;;;;;;;9.54;93.95;94201.02;107984;1287;124691;-85
2024/02/11 06:29:45;;;;;;;;;;;;;;;9.52;94.28;94200.88;107981;1289;22577;-85
2024/02/11 06:32:12;;;;;;;;;;;;;;;9.50;94.54;94201.47;107895;1283;124311;-86
2024/02/11 06:34:44;;;;;;;;;;;;;;;9.49;93.61;94195.11;108031;1289;22720;-86
2024/02/11 06:37:11;;;;;;;;;;;;;;;9.49;94.15;94194.27;108058;1290;22545;-87
2024/02/11 06:39:40;;;;;;;;;;;;;;;9.44;94.25;94185.02;107878;1289;124497;-86
2024/02/11 06:42:09;;;;;;;;;;;;;;;9.39;94.34;94195.83;108058;1283;22547;-86
2024/02/11 06:44:38;;;;;;;;;;;;;;;9.41;94.30;94196.17;107979;1284;124300;-86
2024/02/11 06:47:08;;;;;;;;;;;;;;;9.40;94.18;94198.49;107978;1286;22534;-86
2024/02/11 06:49:37;;;;;;;;;;;;;;;9.38;94.47;94200.27;107846;1284;124468;-86
2024/02/11 06:52:09;;;;;;;;;;;;;;;9.34;95.03;94206.58;107956;1280;24279;-87
2024/02/11 06:54:44;;;;;;;;;;;;;;;9.29;95.56;94195.80;107950;1284;22533;-86
2024/02/11 06:57:10;;;;;;;;;;;;;;;9.21;96.18;94199.15;107916;1285;124495;-86
2024/02/11 06:59:38;;;;;;;;;;;;;;;9.14;96.42;94204.15;108025;1286;22580;-86
2024/02/11 07:02:06;;;;;;;;;;;;;;;9.08;97.22;94199.71;107911;1283;124870;-86
2024/02/11 07:04:33;;;;;;;;;;;;;;;9.03;97.99;94204.91;108083;1289;25390;-86
2024/02/11 07:06:59;;;;;;;;;;;;;;;9.01;97.29;94192.16;108081;1287;23128;-86
2024/02/11 07:10:13;;;;;;;;;;;;;;;9.06;97.75;94189.72;107945;1289;123380;-86
2024/02/11 07:13:32;;;;;;;;;;;;;;;;;;;;;
2024/02/11 07:19:59;;;;;;;;;;;;;;;9.15;98.96;94192.84;106528;1295;125131;-86
2024/02/11 07:22:26;;;;;;;;;;;;;;;9.14;98.18;94188.25;107653;1295;22539;-86
2024/02/11 07:24:52;;;;;;;;;;;;;;;9.23;96.40;94185.04;107816;1288;22529;-86
2024/02/11 07:27:21;;;;;;;;;;;;;;;9.33;97.53;94186.39;107862;1289;124374;-85
2024/02/11 07:29:47;;;;;;;;;;;;;;;9.37;96.08;94189.15;107895;1289;22564;-86
2024/02/11 07:32:14;;;;;;;;;;;;;;;9.46;95.38;94188.67;107833;1283;124575;-86
2024/02/11 07:34:41;;;;;;;;;;;;;;;9.52;95.66;94198.45;107951;1288;22537;-86
2024/02/11 07:37:07;;;;;;;;;;;;;;;9.57;94.88;94194.23;107888;1289;22608;-85
2024/02/11 07:39:34;;;;;;;;;;;;;;;9.61;94.74;94198.12;107810;1288;124580;-86
2024/02/11 07:42:00;;;;;;;;;;;;;;;9.66;93.49;94201.16;107938;1287;22562;-85
2024/02/11 07:44:28;;;;;;;;;;;;;;;9.74;93.61;94197.11;107821;1286;124371;-86
2024/02/11 07:46:54;;;;;;;;;;;;;;;9.77;94.13;94204.67;107897;1289;22549;-85
2024/02/11 07:49:21;;;;;;;;;;;;;;;9.80;92.51;94199.84;107824;1287;22518;-85
2024/02/11 07:51:47;;;;;;;;;;;;;;;9.83;92.15;94201.35;107781;1289;124168;-85
2024/02/11 07:54:14;;;;;;;;;;;;;;;9.88;92.36;94201.45;107820;1286;22553;-85
2024/02/11 07:56:42;;;;;;;;;;;;;;;9.91;93.26;94198.64;107843;1285;22527;-85
2024/02/11 07:59:11;;;;;;;;;;;;;;;9.90;93.81;94195.57;107652;1289;124089;-86
2024/02/11 08:02:18;;;;;;;;;;;;;;;9.90;92.07;94204.48;102011;1267;5229280;-86
2024/02/11 08:05:11;;;;;;;;;;;;;;;9.97;91.66;94213.82;106038;1289;2324432;-85
2024/02/11 08:11:45;;;;;;;;;;;;;;;9.99;90.98;94209.14;107519;1296;25425;-86
2024/02/11 08:14:12;;;;;;;;;;;;;;;10.03;90.67;94204.11;107318;1296;22705;-85
2024/02/11 08:16:41;;;;;;;;;;;;;;;10.06;91.51;94195.45;107654;1290;22525;-86
2024/02/11 08:19:08;;;;;;;;;;;;;;;10.06;89.63;94195.09;107850;1289;22592;-86
2024/02/11 08:21:36;;;;;;;;;;;;;;;10.11;89.98;94211.18;107820;1290;23697;-85
2024/02/11 08:24:02;;;;;;;;;;;;;;;10.11;90.01;94188.98;107954;1283;22553;-86
2024/02/11 08:26:29;;;;;;;;;;;;;;;10.09;91.22;94192.81;107927;1290;22551;-86
2024/02/11 08:28:59;;;;;;;;;;;;;;;10.08;90.76;94191.50;107936;1290;22609;-86
2024/02/11 08:31:28;;;;;;;;;;;;;;;10.10;90.10;94200.99;107839;1289;22517;-85
2024/02/11 08:33:56;;;;;;;;;;;;;;;10.12;89.82;94197.82;107971;1290;26215;-86
2024/02/11 08:36:23;;;;;;;;;;;;;;;10.13;90.29;94204.11;107889;1289;22531;-85
2024/02/11 08:38:50;;;;;;;;;;;;;;;10.13;91.36;94201.04;107817;1290;22535;-85
2024/02/11 08:41:17;;;;;;;;;;;;;;;10.10;92.15;94200.02;107829;1289;22550;-85
2024/02/11 08:43:44;;;;;;;;;;;;;;;10.05;91.01;94209.17;107863;1289;25386;-85
2024/02/11 08:46:13;;;;;;;;;;;;;;;10.04;90.64;94207.91;107790;1289;27060;-85
2024/02/11 08:48:39;;;;;;;;;;;;;;;10.05;89.45;94208.65;107787;1289;22661;-85
2024/02/11 08:51:06;;;;;;;;;;;;;;;10.08;89.80;94203.72;107957;1289;23231;-85
2024/02/11 08:53:32;;;;;;;;;;;;;;;10.07;90.08;94201.11;107780;1289;23332;-85
2024/02/11 08:55:59;;;;;;;;;;;;;;;10.07;90.36;94202.67;107746;1289;22555;-85
2024/02/11 08:58:27;;;;;;;;;;;;;;;10.06;90.28;94199.60;107971;1286;22528;-85
2024/02/11 09:00:54;;;;;;;;;;;;;;;10.06;90.10;94199.60;107948;1286;25213;-85
2024/02/11 09:03:20;;;;;;;;;;;;;;;10.07;90.31;94194.84;107925;1289;25507;-85
2024/02/11 09:05:47;;;;;;;;;;;;;;;10.07;89.47;94196.23;107805;1282;22586;-85
2024/02/11 09:08:15;;;;;;;;;;;;;;;10.07;90.31;94193.28;107907;1289;23022;-85
2024/02/11 09:10:41;;;;;;;;;;;;;;;10.07;89.78;94192.77;107930;1288;23310;-85
2024/02/11 09:13:08;;;;;;;;;;;;;;;10.07;89.59;94187.62;107913;1289;22514;-87
2024/02/11 09:15:34;;;;;;;;;;;;;;;10.04;89.44;94189.95;107807;1289;22524;-85
2024/02/11 09:18:01;;;;;;;;;;;;;;;10.04;89.29;94189.91;107768;1281;22556;-85
2024/02/11 09:20:28;;;;;;;;;;;;;;;10.06;89.65;94192.02;107642;1283;364201;-85
2024/02/11 09:22:56;;;;;;;;;;;;;;;10.08;91.57;94194.65;107890;1283;22517;-85
2024/02/11 09:25:23;;;;;;;;;;;;;;;10.08;90.30;94197.29;107864;1289;22515;-85
2024/02/11 09:27:49;;;;;;;;;;;;;;;10.08;90.41;94194.61;107943;1282;22571;-84
2024/02/11 09:30:17;;;;;;;;;;;;;;;10.10;88.05;94203.69;107961;1287;22525;-85
2024/02/11 09:32:44;;;;;;;;;;;;;;;10.15;87.64;94204.35;107986;1289;26348;-86
2024/02/11 09:35:10;;;;;;;;;;;;;;;10.18;87.89;94199.77;108061;1289;22561;-85
2024/02/11 09:37:37;;;;;;;;;;;;;;;10.16;88.69;94198.92;108055;1289;22681;-87
2024/02/11 09:40:03;;;;;;;;;;;;;;;10.12;89.39;94200.81;108079;1289;22542;-86
2024/02/11 09:42:33;;;;;;;;;;;;;;;10.10;90.20;94200.42;108147;1283;22555;-86
2024/02/11 09:44:59;;;;;;;;;;;;;;;10.10;90.14;94200.98;108131;1284;22525;-84
2024/02/11 09:47:26;;;;;;;;;;;;;;;10.08;89.23;94199.01;108222;1289;25240;-84
2024/02/11 09:49:52;;;;;;;;;;;;;;;10.09;88.98;94204.08;108103;1289;26159;-84
2024/02/11 09:52:19;;;;;;;;;;;;;;;10.10;88.15;94205.45;108003;1289;22580;-84
2024/02/11 09:54:46;;;;;;;;;;;;;;;10.13;88.23;94207.54;108195;1289;22554;-84
2024/02/11 09:57:13;;;;;;;;;;;;;;;10.15;88.30;94211.09;108284;1289;22548;-85
2024/02/11 09:59:39;;;;;;;;;;;;;;;10.17;87.88;94211.65;108062;1283;22523;-84
2024/02/11 10:02:09;;;;;;;;;;;;;;;10.19;87.96;94210.16;107964;1289;22636;-84
2024/02/11 10:04:35;;;;;;;;;;;;;;;10.21;88.09;94209.14;108077;1283;22544;-84
2024/02/11 10:07:02;;;;;;;;;;;;;;;10.23;87.71;94206.98;108021;1287;22531;-84
2024/02/11 10:09:28;;;;;;;;;;;;;;;10.24;87.56;94207.80;108143;1286;22551;-84
2024/02/11 10:11:55;;;;;;;;;;;;;;;10.27;87.47;94207.30;107954;1283;25461;-84
2024/02/11 10:14:26;;;;;;;;;;;;;;;10.28;88.01;94209.30;107960;1283;22526;-84
2024/02/11 10:16:54;;;;;;;;;;;;;;;10.30;87.90;94207.86;107992;1288;22686;-84
2024/02/11 10:19:22;;;;;;;;;;;;;;;10.30;87.44;94208.65;108059;1286;22551;-85
2024/02/11 10:21:50;;;;;;;;;;;;;;;10.32;86.15;94199.02;108024;1283;22531;-84
2024/02/11 10:24:17;;;;;;;;;;;;;;;10.33;87.04;94198.72;108097;1289;25281;-84
2024/02/11 10:26:49;;;;;;;;;;;;;;;10.33;87.54;94200.91;107991;1280;24305;-84
2024/02/11 10:29:18;;;;;;;;;;;;;;;10.33;88.86;94202.55;107945;1289;22602;-84
2024/02/11 10:31:46;;;;;;;;;;;;;;;10.28;85.96;94196.25;108235;1289;23707;-84
2024/02/11 10:34:13;;;;;;;;;;;;;;;10.27;86.94;94190.74;108020;1289;22625;-84
2024/02/11 10:36:40;;;;;;;;;;;;;;;10.26;87.61;94190.94;107957;1289;22598;-84
2024/02/11 10:39:07;;;;;;;;;;;;;;;10.25;88.11;94192.19;107983;1289;22803;-84
2024/02/11 10:41:34;;;;;;;;;;;;;;;10.23;87.74;94196.20;108065;1289;24309;-85
2024/02/11 10:44:06;;;;;;;;;;;;;;;10.24;87.12;94189.95;107924;1290;22524;-84
2024/02/11 10:46:33;;;;;;;;;;;;;;;10.27;86.19;94191.73;107936;1290;23035;-84
2024/02/11 10:49:00;;;;;;;;;;;;;;;10.30;86.69;94190.73;107928;1290;22559;-84
2024/02/11 10:51:31;;;;;;;;;;;;;;;10.32;87.32;94191.13;107930;1290;24156;-84
2024/02/11 10:53:58;;;;;;;;;;;;;;;10.31;86.98;94184.11;107975;1284;22531;-84
2024/02/11 10:56:25;;;;;;;;;;;;;;;10.32;86.63;94184.74;108006;1290;22540;-85
2024/02/11 10:59:31;;;;;;;;;;;;;;;10.34;86.71;94182.70;108035;1284;22527;-84
2024/02/11 11:01:59;;;;;;;;;;;;;;;10.35;85.71;94185.42;107494;1289;22531;-84
2024/02/11 11:04:25;;;;;;;;;;;;;;;10.37;85.53;94184.45;107347;1292;24499;-84
2024/02/11 11:06:52;;;;;;;;;;;;;;;10.40;86.02;94186.13;107606;1284;22528;-84
2024/02/11 11:09:19;;;;;;;;;;;;;;;10.42;85.85;94189.90;107994;1290;22522;-84
2024/02/11 11:11:46;;;;;;;;;;;;;;;10.43;85.39;94190.04;107992;1290;23339;-84
2024/02/11 11:14:13;;;;;;;;;;;;;;;10.44;85.59;94186.93;107876;1291;22575;-84
2024/02/11 11:16:42;;;;;;;;;;;;;;;10.46;85.68;94188.73;108069;1283;22584;-84
2024/02/11 11:19:15;;;;;;;;;;;;;;;10.48;86.10;94191.36;108005;1290;22539;-84
2024/02/11 11:21:50;;;;;;;;;;;;;;;10.51;86.47;94187.50;108074;1286;22528;-84
2024/02/11 11:24:21;;;;;;;;;;;;;;;10.51;87.48;94184.30;108205;1290;23276;-84
2024/02/11 11:26:55;;;;;;;;;;;;;;;10.51;87.37;94188.03;107990;1287;22616;-84
2024/02/11 11:29:27;;;;;;;;;;;;;;;10.51;87.33;94185.38;107978;1290;22562;-84
2024/02/11 11:31:59;;;;;;;;;;;;;;;10.50;85.97;94187.39;108024;1290;25628;-84
2024/02/11 11:34:27;;;;;;;;;;;;;;;10.51;87.63;94185.53;107988;1289;22549;-84
2024/02/11 11:36:53;;;;;;;;;;;;;;;10.50;88.03;94184.64;107983;1290;22531;-84
2024/02/11 11:39:20;;;;;;;;;;;;;;;10.50;88.03;94183.03;107971;1284;22525;-85
2024/02/11 11:41:46;;;;;;;;;;;;;;;10.53;88.08;94176.69;108042;1290;22525;-84
2024/02/11 11:44:20;;;;;;;;;;;;;;;10.57;87.06;94175.70;107890;1283;22514;-84
2024/02/11 11:46:46;;;;;;;;;;;;;;;10.59;86.58;94180.85;108020;1284;22640;-84
2024/02/11 11:49:13;;;;;;;;;;;;;;;10.61;86.03;94175.89;107884;1286;22542;-85
2024/02/11 11:51:40;;;;;;;;;;;;;;;10.63;86.70;94172.65;108031;1290;22539;-84
2024/02/11 11:54:06;;;;;;;;;;;;;;;10.65;87.17;94173.52;108013;1284;22517;-84
2024/02/11 11:56:33;;;;;;;;;;;;;;;10.66;86.31;94171.96;108015;1290;23123;-84
2024/02/11 11:59:03;;;;;;;;;;;;;;;10.67;86.29;94172.39;107955;1290;22515;-85
2024/02/11 12:01:30;;;;;;;;;;;;;;;10.68;85.90;94170.48;108021;1288;22518;-85
2024/02/11 12:03:57;;;;;;;;;;;;;;;10.70;85.80;94170.40;107965;1290;22590;-85
2024/02/11 12:06:23;;;;;;;;;;;;;;;10.72;86.16;94172.14;108020;1290;25324;-84
2024/02/11 12:08:49;;;;;;;;;;;;;;;10.73;87.18;94169.36;107952;1290;22522;-84
2024/02/11 12:11:17;;;;;;;;;;;;;;;10.73;86.96;94166.52;107959;1290;25498;-84
2024/02/11 12:13:46;;;;;;;;;;;;;;;10.74;86.49;94164.32;108029;1290;22569;-85
2024/02/11 12:16:18;;;;;;;;;;;;;;;10.75;85.77;94167.71;107997;1290;22518;-84
2024/02/11 12:18:44;;;;;;;;;;;;;;;10.76;85.62;94165.23;109450;1283;22580;-85
2024/02/11 12:21:10;;;;;;;;;;;;;;;10.77;86.23;94161.36;107900;1290;22558;-84
2024/02/11 12:23:37;;;;;;;;;;;;;;;10.78;86.60;94163.09;107935;1290;22581;-84
2024/02/11 12:26:04;;;;;;;;;;;;;;;10.80;87.47;94160.66;108038;1283;23844;-84
2024/02/11 12:28:32;;;;;;;;;;;;;;;10.78;87.90;94159.91;107962;1290;22586;-84
2024/02/11 12:31:12;;;;;;;;;;;;;;;10.77;87.14;94160.16;107986;1290;22540;-84
2024/02/11 12:33:40;;;;;;;;;;;;;;;10.77;87.40;94155.89;109469;1290;22585;-85
2024/02/11 12:36:07;;;;;;;;;;;;;;;10.77;85.94;94155.16;108203;1286;22660;-85
2024/02/11 12:38:34;;;;;;;;;;;;;;;10.80;86.41;94153.90;108036;1290;23789;-85
2024/02/11 12:41:00;;;;;;;;;;;;;;;10.81;87.91;94151.59;107938;1283;24238;-84
2024/02/11 12:43:28;;;;;;;;;;;;;;;10.81;86.66;94151.84;107992;1283;25302;-84
2024/02/11 12:45:55;;;;;;;;;;;;;;;10.81;85.73;94149.76;107985;1289;22534;-84
2024/02/11 12:48:22;;;;;;;;;;;;;;;10.82;85.85;94152.58;107923;1286;22516;-84
2024/02/11 12:50:49;;;;;;;;;;;;;;;10.84;85.89;94149.11;108009;1289;22526;-85
2024/02/11 12:53:17;;;;;;;;;;;;;;;10.83;86.49;94147.30;108158;1289;24248;-84